メインページ
METAR-TAF:

METAR-TAF

空港 :

ドンムアン空港

バンコク, タイ

緯度: 13-54-45N, 経度: 100-36-24E, 海抜: 4m

現時点の気象観測

当レポートは39分前の18:30(UTC)に作成
の風 5kt
気温 28°C
湿度 84%
気圧 1007 hPa
視程10km以上
高度2000ftの雲はほとんどない
高度10000ftの千切れ雲あり

METAR: VTBD 191830Z 19005KT 9999 FEW020 BKN100 28/25 Q1007 NOSIG

時間: 02:09 (19:09 UTC)

予報

当レポートは2時間9分前の17:00(UTC)に作成
予報は19日の 18時(UTC)から 20日の 24時(UTC)まで有効
の風 8kt
視程10km以上
高度2000ftの雲はほとんどない
20日の 08時(UTC)から 20日の 13時(UTC)まで一時的に
西/南西の風 10kt、最大20ktの突風を伴う
視程: 5000m
高度1800ftの雲はほとんどない, 積乱雲.
高度3500ftの雲は散在している
高度10000ftの千切れ雲あり
激しい雷雨, 雨

TAF: VTBD 191700Z 1918/2024 19008KT 9999 FEW020 TEMPO 2008/2013 24010G20KT 5000 TSRA FEW018CB SCT035 BKN100

4,000以上の空港の気象観測と天気予報(METAR報とTAF報)

利用可能な観測所は地図上に黄色い丸と赤い丸で示す。

丸の上にカーソルを重ねると観測所名を参照できる。

次にクリックすると気象観測と天気予報を参照できる。

マップの切り替え:黒色「×」印の緑ボタンをクリックして拡大、「-」印の緑ボタンをクリックして縮小、緑色の三角印をクリックして隣りの地図に切り替え


METAR-TAF: